Oil Center, New Mexico
Current Conditions -  °F | °C
As of 4:50 PM on Sunday 23 Nov 2014 (Local Time) from KHOB Reporting Station
Clear Clear  
Wind Chill: 38°   Ceiling: Unl
Heat Index: 46°   Visibility: 10mi
Dew Point: 28°   Wind: 28mph
Humidity: 50%   Direction: 360°N
Pressure: 29.84"   Gusts: 37mph
Location:  32.6132°N, 103.326°W
Report Text: KHOB 232350Z 36024G32KT 10SM SKC 08/M02 A2984
Loading
Personal Weather Stations






























Interactive Weather Map New forecast layout! Learn more

10-Day Weather Forecast

Advertisements
Track Severe Weather on mobile